sensor_id;sensor_type;location;lat;lon;timestamp;P1;durP1;ratioP1;P2;durP2;ratioP2
16543;SDS011;8384;47.996;7.786;2022-11-30T00:00:18;43.87;;;28.67;;
16543;SDS011;8384;47.996;7.786;2022-11-30T00:02:45;46.70;;;30.87;;
16543;SDS011;8384;47.996;7.786;2022-11-30T00:05:10;44.60;;;29.10;;
16543;SDS011;8384;47.996;7.786;2022-11-30T00:07:36;44.00;;;28.17;;
16543;SDS011;8384;47.996;7.786;2022-11-30T00:10:03;41.47;;;28.07;;
16543;SDS011;8384;47.996;7.786;2022-11-30T00:12:29;38.20;;;26.33;;
16543;SDS011;8384;47.996;7.786;2022-11-30T00:14:55;42.00;;;27.73;;
16543;SDS011;8384;47.996;7.786;2022-11-30T00:17:20;40.47;;;27.93;;
16543;SDS011;8384;47.996;7.786;2022-11-30T00:19:46;38.30;;;27.83;;
16543;SDS011;8384;47.996;7.786;2022-11-30T00:22:11;42.50;;;28.30;;
16543;SDS011;8384;47.996;7.786;2022-11-30T00:24:36;39.40;;;26.33;;
16543;SDS011;8384;47.996;7.786;2022-11-30T00:27:02;39.57;;;27.87;;
16543;SDS011;8384;47.996;7.786;2022-11-30T00:29:27;38.30;;;25.77;;
16543;SDS011;8384;47.996;7.786;2022-11-30T00:31:52;37.47;;;25.87;;
16543;SDS011;8384;47.996;7.786;2022-11-30T00:34:18;33.47;;;24.90;;
16543;SDS011;8384;47.996;7.786;2022-11-30T00:36:43;41.53;;;27.13;;
16543;SDS011;8384;47.996;7.786;2022-11-30T00:39:08;35.37;;;25.57;;
16543;SDS011;8384;47.996;7.786;2022-11-30T00:41:34;36.70;;;24.20;;
16543;SDS011;8384;47.996;7.786;2022-11-30T00:43:59;36.03;;;25.17;;
16543;SDS011;8384;47.996;7.786;2022-11-30T00:46:24;35.67;;;25.13;;
16543;SDS011;8384;47.996;7.786;2022-11-30T00:48:49;37.60;;;24.10;;
16543;SDS011;8384;47.996;7.786;2022-11-30T00:51:15;38.80;;;25.47;;
16543;SDS011;8384;47.996;7.786;2022-11-30T00:53:40;36.33;;;23.87;;
16543;SDS011;8384;47.996;7.786;2022-11-30T00:56:06;34.50;;;23.23;;
16543;SDS011;8384;47.996;7.786;2022-11-30T00:58:32;38.70;;;24.50;;
16543;SDS011;8384;47.996;7.786;2022-11-30T01:00:58;37.83;;;23.33;;
16543;SDS011;8384;47.996;7.786;2022-11-30T01:03:24;39.77;;;24.30;;
16543;SDS011;8384;47.996;7.786;2022-11-30T01:05:49;41.13;;;24.17;;
16543;SDS011;8384;47.996;7.786;2022-11-30T01:08:14;37.20;;;23.57;;
16543;SDS011;8384;47.996;7.786;2022-11-30T01:10:40;37.87;;;25.20;;
16543;SDS011;8384;47.996;7.786;2022-11-30T01:13:07;37.33;;;24.73;;
16543;SDS011;8384;47.996;7.786;2022-11-30T01:15:36;39.20;;;25.73;;
16543;SDS011;8384;47.996;7.786;2022-11-30T01:18:03;38.97;;;24.53;;
16543;SDS011;8384;47.996;7.786;2022-11-30T01:20:28;38.93;;;25.07;;
16543;SDS011;8384;47.996;7.786;2022-11-30T01:22:54;37.53;;;23.23;;
16543;SDS011;8384;47.996;7.786;2022-11-30T01:25:20;36.73;;;23.27;;
16543;SDS011;8384;47.996;7.786;2022-11-30T01:27:47;37.87;;;24.77;;
16543;SDS011;8384;47.996;7.786;2022-11-30T01:30:13;38.07;;;24.10;;
16543;SDS011;8384;47.996;7.786;2022-11-30T01:32:38;41.13;;;24.87;;
16543;SDS011;8384;47.996;7.786;2022-11-30T01:35:03;41.57;;;24.73;;
16543;SDS011;8384;47.996;7.786;2022-11-30T01:37:29;37.23;;;25.17;;
16543;SDS011;8384;47.996;7.786;2022-11-30T01:39:54;38.03;;;24.27;;
16543;SDS011;8384;47.996;7.786;2022-11-30T01:42:19;36.37;;;24.30;;
16543;SDS011;8384;47.996;7.786;2022-11-30T01:47:17;37.33;;;25.23;;
16543;SDS011;8384;47.996;7.786;2022-11-30T01:49:47;38.17;;;23.87;;
16543;SDS011;8384;47.996;7.786;2022-11-30T01:52:18;37.27;;;24.77;;
16543;SDS011;8384;47.996;7.786;2022-11-30T01:54:54;37.10;;;25.07;;
16543;SDS011;8384;47.996;7.786;2022-11-30T01:57:29;37.83;;;22.97;;
16543;SDS011;8384;47.996;7.786;2022-11-30T01:59:59;40.13;;;25.93;;
16543;SDS011;8384;47.996;7.786;2022-11-30T02:02:36;37.73;;;24.70;;
16543;SDS011;8384;47.996;7.786;2022-11-30T02:05:04;39.00;;;23.73;;
16543;SDS011;8384;47.996;7.786;2022-11-30T02:07:30;35.37;;;23.33;;
16543;SDS011;8384;47.996;7.786;2022-11-30T02:09:55;36.50;;;24.30;;
16543;SDS011;8384;47.996;7.786;2022-11-30T02:15:34;39.00;;;24.90;;
16543;SDS011;8384;47.996;7.786;2022-11-30T02:18:15;38.13;;;23.87;;
16543;SDS011;8384;47.996;7.786;2022-11-30T02:20:55;38.17;;;24.53;;
16543;SDS011;8384;47.996;7.786;2022-11-30T02:31:22;39.03;;;23.73;;
16543;SDS011;8384;47.996;7.786;2022-11-30T02:33:52;37.33;;;24.30;;
16543;SDS011;8384;47.996;7.786;2022-11-30T02:36:20;38.00;;;24.93;;
16543;SDS011;8384;47.996;7.786;2022-11-30T02:38:48;37.27;;;23.97;;
16543;SDS011;8384;47.996;7.786;2022-11-30T02:41:13;36.70;;;23.20;;
16543;SDS011;8384;47.996;7.786;2022-11-30T02:43:39;34.50;;;23.07;;
16543;SDS011;8384;47.996;7.786;2022-11-30T02:48:52;33.97;;;22.80;;
16543;SDS011;8384;47.996;7.786;2022-11-30T02:51:23;32.40;;;21.83;;
16543;SDS011;8384;47.996;7.786;2022-11-30T02:53:51;30.77;;;21.33;;
16543;SDS011;8384;47.996;7.786;2022-11-30T02:56:16;27.57;;;21.07;;
16543;SDS011;8384;47.996;7.786;2022-11-30T02:58:43;25.50;;;19.80;;
16543;SDS011;8384;47.996;7.786;2022-11-30T03:01:09;26.67;;;20.57;;
16543;SDS011;8384;47.996;7.786;2022-11-30T03:03:34;28.27;;;20.93;;
16543;SDS011;8384;47.996;7.786;2022-11-30T03:05:59;27.20;;;20.77;;
16543;SDS011;8384;47.996;7.786;2022-11-30T03:08:25;25.03;;;19.83;;
16543;SDS011;8384;47.996;7.786;2022-11-30T03:10:50;24.93;;;19.50;;
16543;SDS011;8384;47.996;7.786;2022-11-30T03:13:16;26.87;;;19.37;;
16543;SDS011;8384;47.996;7.786;2022-11-30T03:15:41;25.47;;;19.50;;
16543;SDS011;8384;47.996;7.786;2022-11-30T03:18:06;22.80;;;18.33;;
16543;SDS011;8384;47.996;7.786;2022-11-30T03:20:32;23.60;;;18.43;;
16543;SDS011;8384;47.996;7.786;2022-11-30T03:22:58;22.27;;;18.87;;
16543;SDS011;8384;47.996;7.786;2022-11-30T03:25:25;24.67;;;19.43;;
16543;SDS011;8384;47.996;7.786;2022-11-30T03:27:50;23.57;;;18.97;;
16543;SDS011;8384;47.996;7.786;2022-11-30T03:30:16;24.70;;;19.40;;
16543;SDS011;8384;47.996;7.786;2022-11-30T03:32:42;21.03;;;18.63;;
16543;SDS011;8384;47.996;7.786;2022-11-30T03:35:07;26.33;;;21.03;;
16543;SDS011;8384;47.996;7.786;2022-11-30T03:37:33;26.27;;;20.83;;
16543;SDS011;8384;47.996;7.786;2022-11-30T03:39:59;27.50;;;20.77;;
16543;SDS011;8384;47.996;7.786;2022-11-30T03:42:25;30.73;;;21.80;;
16543;SDS011;8384;47.996;7.786;2022-11-30T03:44:50;28.60;;;21.53;;
16543;SDS011;8384;47.996;7.786;2022-11-30T03:47:16;30.17;;;21.67;;
16543;SDS011;8384;47.996;7.786;2022-11-30T03:49:41;29.17;;;22.30;;
16543;SDS011;8384;47.996;7.786;2022-11-30T03:52:13;28.53;;;21.77;;
16543;SDS011;8384;47.996;7.786;2022-11-30T03:54:38;26.47;;;21.43;;
16543;SDS011;8384;47.996;7.786;2022-11-30T03:57:05;26.10;;;21.03;;
16543;SDS011;8384;47.996;7.786;2022-11-30T03:59:34;26.40;;;20.57;;
16543;SDS011;8384;47.996;7.786;2022-11-30T04:02:01;28.33;;;21.30;;
16543;SDS011;8384;47.996;7.786;2022-11-30T04:04:26;25.97;;;20.70;;
16543;SDS011;8384;47.996;7.786;2022-11-30T04:06:51;26.27;;;19.70;;
16543;SDS011;8384;47.996;7.786;2022-11-30T04:09:17;23.93;;;19.57;;
16543;SDS011;8384;47.996;7.786;2022-11-30T04:11:43;22.57;;;19.13;;
16543;SDS011;8384;47.996;7.786;2022-11-30T04:14:08;22.57;;;18.70;;
16543;SDS011;8384;47.996;7.786;2022-11-30T04:16:34;20.57;;;18.30;;
16543;SDS011;8384;47.996;7.786;2022-11-30T04:18:59;20.27;;;17.40;;
16543;SDS011;8384;47.996;7.786;2022-11-30T04:21:24;20.63;;;17.67;;
16543;SDS011;8384;47.996;7.786;2022-11-30T04:23:50;20.83;;;18.63;;
16543;SDS011;8384;47.996;7.786;2022-11-30T04:26:15;21.33;;;17.90;;
16543;SDS011;8384;47.996;7.786;2022-11-30T04:28:41;20.63;;;16.93;;
16543;SDS011;8384;47.996;7.786;2022-11-30T04:31:07;20.27;;;17.87;;
16543;SDS011;8384;47.996;7.786;2022-11-30T04:33:33;22.00;;;18.17;;
16543;SDS011;8384;47.996;7.786;2022-11-30T04:36:00;23.57;;;17.87;;
16543;SDS011;8384;47.996;7.786;2022-11-30T04:38:27;23.57;;;18.40;;
16543;SDS011;8384;47.996;7.786;2022-11-30T04:40:53;21.43;;;18.33;;
16543;SDS011;8384;47.996;7.786;2022-11-30T04:43:19;23.23;;;18.00;;
16543;SDS011;8384;47.996;7.786;2022-11-30T04:45:45;23.47;;;18.17;;
16543;SDS011;8384;47.996;7.786;2022-11-30T04:48:11;23.23;;;17.93;;
16543;SDS011;8384;47.996;7.786;2022-11-30T04:50:38;21.00;;;17.33;;
16543;SDS011;8384;47.996;7.786;2022-11-30T04:53:08;21.93;;;17.47;;
16543;SDS011;8384;47.996;7.786;2022-11-30T04:55:35;21.77;;;16.90;;
16543;SDS011;8384;47.996;7.786;2022-11-30T04:58:02;20.37;;;16.60;;
16543;SDS011;8384;47.996;7.786;2022-11-30T05:00:28;20.93;;;16.03;;
16543;SDS011;8384;47.996;7.786;2022-11-30T05:02:54;21.67;;;15.97;;
16543;SDS011;8384;47.996;7.786;2022-11-30T05:05:20;19.67;;;15.30;;
16543;SDS011;8384;47.996;7.786;2022-11-30T05:07:50;19.63;;;15.30;;
16543;SDS011;8384;47.996;7.786;2022-11-30T05:10:19;19.90;;;16.23;;
16543;SDS011;8384;47.996;7.786;2022-11-30T05:12:45;19.73;;;15.63;;
16543;SDS011;8384;47.996;7.786;2022-11-30T05:15:11;18.93;;;15.43;;
16543;SDS011;8384;47.996;7.786;2022-11-30T05:17:37;16.50;;;14.40;;
16543;SDS011;8384;47.996;7.786;2022-11-30T05:20:03;16.80;;;12.93;;
16543;SDS011;8384;47.996;7.786;2022-11-30T05:22:29;16.57;;;13.70;;
16543;SDS011;8384;47.996;7.786;2022-11-30T05:24:54;16.20;;;13.13;;
16543;SDS011;8384;47.996;7.786;2022-11-30T05:27:20;17.93;;;13.93;;
16543;SDS011;8384;47.996;7.786;2022-11-30T05:29:45;15.33;;;13.47;;
16543;SDS011;8384;47.996;7.786;2022-11-30T05:32:10;18.13;;;14.17;;
16543;SDS011;8384;47.996;7.786;2022-11-30T05:34:39;14.83;;;13.07;;
16543;SDS011;8384;47.996;7.786;2022-11-30T05:37:04;18.83;;;14.53;;
16543;SDS011;8384;47.996;7.786;2022-11-30T05:39:29;17.63;;;15.00;;
16543;SDS011;8384;47.996;7.786;2022-11-30T05:41:55;15.53;;;13.10;;
16543;SDS011;8384;47.996;7.786;2022-11-30T05:44:20;14.73;;;12.43;;
16543;SDS011;8384;47.996;7.786;2022-11-30T05:46:45;16.80;;;12.93;;
16543;SDS011;8384;47.996;7.786;2022-11-30T05:49:10;14.60;;;12.37;;
16543;SDS011;8384;47.996;7.786;2022-11-30T05:51:37;16.77;;;12.40;;
16543;SDS011;8384;47.996;7.786;2022-11-30T05:54:04;17.27;;;13.27;;
16543;SDS011;8384;47.996;7.786;2022-11-30T05:56:29;13.70;;;12.23;;
16543;SDS011;8384;47.996;7.786;2022-11-30T05:58:54;15.07;;;12.87;;
16543;SDS011;8384;47.996;7.786;2022-11-30T06:01:24;14.47;;;11.87;;
16543;SDS011;8384;47.996;7.786;2022-11-30T06:03:53;15.07;;;13.17;;
16543;SDS011;8384;47.996;7.786;2022-11-30T06:06:19;15.47;;;12.47;;
16543;SDS011;8384;47.996;7.786;2022-11-30T06:08:45;13.50;;;11.73;;
16543;SDS011;8384;47.996;7.786;2022-11-30T06:11:11;13.57;;;12.17;;
16543;SDS011;8384;47.996;7.786;2022-11-30T06:13:40;14.23;;;11.63;;
16543;SDS011;8384;47.996;7.786;2022-11-30T06:16:05;13.57;;;12.07;;
16543;SDS011;8384;47.996;7.786;2022-11-30T06:18:31;13.13;;;11.73;;
16543;SDS011;8384;47.996;7.786;2022-11-30T06:21:00;12.80;;;11.50;;
16543;SDS011;8384;47.996;7.786;2022-11-30T06:23:30;13.50;;;12.07;;
16543;SDS011;8384;47.996;7.786;2022-11-30T06:25:56;12.83;;;11.10;;
16543;SDS011;8384;47.996;7.786;2022-11-30T06:28:21;13.13;;;11.73;;
16543;SDS011;8384;47.996;7.786;2022-11-30T06:30:46;12.97;;;11.57;;
16543;SDS011;8384;47.996;7.786;2022-11-30T06:33:12;13.40;;;11.87;;
16543;SDS011;8384;47.996;7.786;2022-11-30T06:35:43;13.10;;;11.70;;
16543;SDS011;8384;47.996;7.786;2022-11-30T06:38:09;16.50;;;12.10;;
16543;SDS011;8384;47.996;7.786;2022-11-30T06:40:35;12.27;;;10.90;;
16543;SDS011;8384;47.996;7.786;2022-11-30T06:43:00;13.67;;;11.90;;
16543;SDS011;8384;47.996;7.786;2022-11-30T06:45:25;13.70;;;11.97;;
16543;SDS011;8384;47.996;7.786;2022-11-30T06:47:53;13.63;;;11.40;;
16543;SDS011;8384;47.996;7.786;2022-11-30T06:50:19;14.73;;;12.80;;
16543;SDS011;8384;47.996;7.786;2022-11-30T06:52:45;14.03;;;12.13;;
16543;SDS011;8384;47.996;7.786;2022-11-30T06:55:10;14.30;;;12.33;;
16543;SDS011;8384;47.996;7.786;2022-11-30T06:57:35;16.50;;;13.33;;
16543;SDS011;8384;47.996;7.786;2022-11-30T07:00:01;16.87;;;13.47;;
16543;SDS011;8384;47.996;7.786;2022-11-30T07:02:27;17.13;;;13.67;;
16543;SDS011;8384;47.996;7.786;2022-11-30T07:04:52;16.00;;;13.77;;
16543;SDS011;8384;47.996;7.786;2022-11-30T07:07:17;16.83;;;14.80;;
16543;SDS011;8384;47.996;7.786;2022-11-30T07:09:42;20.63;;;16.30;;
16543;SDS011;8384;47.996;7.786;2022-11-30T07:12:08;24.73;;;18.17;;
16543;SDS011;8384;47.996;7.786;2022-11-30T07:14:33;21.93;;;18.23;;
16543;SDS011;8384;47.996;7.786;2022-11-30T07:16:59;29.90;;;20.63;;
16543;SDS011;8384;47.996;7.786;2022-11-30T07:19:28;28.10;;;22.83;;
16543;SDS011;8384;47.996;7.786;2022-11-30T07:21:54;30.07;;;24.20;;
16543;SDS011;8384;47.996;7.786;2022-11-30T07:24:19;28.50;;;21.70;;
16543;SDS011;8384;47.996;7.786;2022-11-30T07:27:03;28.00;;;20.40;;
16543;SDS011;8384;47.996;7.786;2022-11-30T07:29:28;26.13;;;20.73;;
16543;SDS011;8384;47.996;7.786;2022-11-30T07:31:54;30.13;;;22.53;;
16543;SDS011;8384;47.996;7.786;2022-11-30T07:34:20;34.60;;;22.30;;
16543;SDS011;8384;47.996;7.786;2022-11-30T07:36:46;33.33;;;23.20;;
16543;SDS011;8384;47.996;7.786;2022-11-30T07:39:12;31.97;;;23.17;;
16543;SDS011;8384;47.996;7.786;2022-11-30T07:41:38;32.13;;;22.57;;
16543;SDS011;8384;47.996;7.786;2022-11-30T07:44:04;34.27;;;23.40;;
16543;SDS011;8384;47.996;7.786;2022-11-30T07:46:30;33.00;;;22.00;;
16543;SDS011;8384;47.996;7.786;2022-11-30T07:48:57;29.57;;;21.47;;
16543;SDS011;8384;47.996;7.786;2022-11-30T07:51:23;33.37;;;21.23;;
16543;SDS011;8384;47.996;7.786;2022-11-30T07:53:48;27.10;;;20.00;;
16543;SDS011;8384;47.996;7.786;2022-11-30T07:56:15;27.60;;;19.73;;
16543;SDS011;8384;47.996;7.786;2022-11-30T07:58:44;29.37;;;19.83;;
16543;SDS011;8384;47.996;7.786;2022-11-30T08:01:11;30.20;;;20.53;;
16543;SDS011;8384;47.996;7.786;2022-11-30T08:03:38;27.23;;;19.63;;
16543;SDS011;8384;47.996;7.786;2022-11-30T08:06:07;28.13;;;18.80;;
16543;SDS011;8384;47.996;7.786;2022-11-30T08:08:37;29.03;;;19.10;;
16543;SDS011;8384;47.996;7.786;2022-11-30T08:11:04;26.03;;;18.70;;
16543;SDS011;8384;47.996;7.786;2022-11-30T08:13:31;27.33;;;19.23;;
16543;SDS011;8384;47.996;7.786;2022-11-30T08:16:00;24.53;;;19.23;;
16543;SDS011;8384;47.996;7.786;2022-11-30T08:18:27;26.30;;;18.23;;
16543;SDS011;8384;47.996;7.786;2022-11-30T08:20:59;26.87;;;18.40;;
16543;SDS011;8384;47.996;7.786;2022-11-30T08:23:35;23.93;;;17.77;;
16543;SDS011;8384;47.996;7.786;2022-11-30T08:26:06;27.97;;;19.23;;
16543;SDS011;8384;47.996;7.786;2022-11-30T08:28:36;29.70;;;19.43;;
16543;SDS011;8384;47.996;7.786;2022-11-30T08:31:03;26.70;;;18.47;;
16543;SDS011;8384;47.996;7.786;2022-11-30T08:33:30;26.47;;;19.30;;
16543;SDS011;8384;47.996;7.786;2022-11-30T08:38:37;31.43;;;20.90;;
16543;SDS011;8384;47.996;7.786;2022-11-30T08:41:04;36.57;;;23.33;;
16543;SDS011;8384;47.996;7.786;2022-11-30T08:43:30;32.00;;;22.27;;
16543;SDS011;8384;47.996;7.786;2022-11-30T08:45:56;30.77;;;22.47;;
16543;SDS011;8384;47.996;7.786;2022-11-30T08:48:22;31.67;;;22.97;;
16543;SDS011;8384;47.996;7.786;2022-11-30T08:50:47;33.93;;;22.30;;
16543;SDS011;8384;47.996;7.786;2022-11-30T08:53:13;32.57;;;21.27;;
16543;SDS011;8384;47.996;7.786;2022-11-30T08:55:38;32.60;;;21.77;;
16543;SDS011;8384;47.996;7.786;2022-11-30T08:58:04;28.33;;;20.73;;
16543;SDS011;8384;47.996;7.786;2022-11-30T09:00:29;32.03;;;21.70;;
16543;SDS011;8384;47.996;7.786;2022-11-30T09:02:55;31.37;;;21.17;;
16543;SDS011;8384;47.996;7.786;2022-11-30T09:05:20;32.60;;;21.67;;
16543;SDS011;8384;47.996;7.786;2022-11-30T09:07:45;29.30;;;20.70;;
16543;SDS011;8384;47.996;7.786;2022-11-30T09:10:11;31.20;;;21.37;;
16543;SDS011;8384;47.996;7.786;2022-11-30T09:12:37;26.93;;;20.13;;
16543;SDS011;8384;47.996;7.786;2022-11-30T09:15:04;29.00;;;21.30;;
16543;SDS011;8384;47.996;7.786;2022-11-30T09:17:30;31.17;;;21.27;;
16543;SDS011;8384;47.996;7.786;2022-11-30T09:19:55;28.97;;;20.40;;
16543;SDS011;8384;47.996;7.786;2022-11-30T09:22:21;27.00;;;20.53;;
16543;SDS011;8384;47.996;7.786;2022-11-30T09:24:46;29.70;;;20.70;;
16543;SDS011;8384;47.996;7.786;2022-11-30T09:27:11;29.63;;;21.83;;
16543;SDS011;8384;47.996;7.786;2022-11-30T09:29:37;30.20;;;20.73;;
16543;SDS011;8384;47.996;7.786;2022-11-30T09:32:02;28.90;;;20.83;;
16543;SDS011;8384;47.996;7.786;2022-11-30T09:34:27;31.67;;;21.53;;
16543;SDS011;8384;47.996;7.786;2022-11-30T09:36:53;27.90;;;20.77;;
16543;SDS011;8384;47.996;7.786;2022-11-30T09:39:18;30.63;;;20.33;;
16543;SDS011;8384;47.996;7.786;2022-11-30T09:42:28;28.23;;;21.70;;
16543;SDS011;8384;47.996;7.786;2022-11-30T09:45:06;30.37;;;21.17;;
16543;SDS011;8384;47.996;7.786;2022-11-30T09:50:23;26.93;;;19.43;;
16543;SDS011;8384;47.996;7.786;2022-11-30T09:52:55;24.40;;;19.40;;
16543;SDS011;8384;47.996;7.786;2022-11-30T09:55:29;26.90;;;21.03;;
16543;SDS011;8384;47.996;7.786;2022-11-30T09:57:59;24.33;;;19.00;;
16543;SDS011;8384;47.996;7.786;2022-11-30T10:00:28;22.73;;;18.50;;
16543;SDS011;8384;47.996;7.786;2022-11-30T10:02:53;24.73;;;19.80;;
16543;SDS011;8384;47.996;7.786;2022-11-30T10:05:22;24.03;;;18.73;;
16543;SDS011;8384;47.996;7.786;2022-11-30T10:08:05;22.17;;;16.83;;
16543;SDS011;8384;47.996;7.786;2022-11-30T10:10:45;24.13;;;18.10;;
16543;SDS011;8384;47.996;7.786;2022-11-30T10:18:49;23.43;;;18.27;;
16543;SDS011;8384;47.996;7.786;2022-11-30T10:24:23;21.83;;;17.17;;
16543;SDS011;8384;47.996;7.786;2022-11-30T10:26:57;21.17;;;16.37;;
16543;SDS011;8384;47.996;7.786;2022-11-30T10:29:42;23.37;;;16.83;;
16543;SDS011;8384;47.996;7.786;2022-11-30T10:34:47;20.73;;;15.23;;
16543;SDS011;8384;47.996;7.786;2022-11-30T10:37:19;18.77;;;15.00;;
16543;SDS011;8384;47.996;7.786;2022-11-30T10:40:32;19.57;;;16.00;;
16543;SDS011;8384;47.996;7.786;2022-11-30T10:45:18;18.33;;;15.47;;
16543;SDS011;8384;47.996;7.786;2022-11-30T10:47:48;17.63;;;14.87;;
16543;SDS011;8384;47.996;7.786;2022-11-30T10:50:15;17.17;;;14.10;;
16543;SDS011;8384;47.996;7.786;2022-11-30T10:52:48;19.50;;;14.60;;
16543;SDS011;8384;47.996;7.786;2022-11-30T10:55:18;18.40;;;14.20;;
16543;SDS011;8384;47.996;7.786;2022-11-30T10:57:47;16.00;;;12.87;;
16543;SDS011;8384;47.996;7.786;2022-11-30T11:00:18;16.50;;;12.70;;
16543;SDS011;8384;47.996;7.786;2022-11-30T11:02:44;14.63;;;12.00;;
16543;SDS011;8384;47.996;7.786;2022-11-30T11:08:17;13.97;;;12.07;;
16543;SDS011;8384;47.996;7.786;2022-11-30T11:10:46;14.97;;;11.33;;
16543;SDS011;8384;47.996;7.786;2022-11-30T11:13:17;13.37;;;10.03;;
16543;SDS011;8384;47.996;7.786;2022-11-30T11:15:59;10.83;;;8.07;;
16543;SDS011;8384;47.996;7.786;2022-11-30T11:18:26;8.40;;;7.60;;
16543;SDS011;8384;47.996;7.786;2022-11-30T11:21:00;8.50;;;7.60;;
16543;SDS011;8384;47.996;7.786;2022-11-30T11:23:30;8.73;;;7.83;;
16543;SDS011;8384;47.996;7.786;2022-11-30T11:25:59;8.93;;;7.10;;
16543;SDS011;8384;47.996;7.786;2022-11-30T11:28:25;7.93;;;7.13;;
16543;SDS011;8384;47.996;7.786;2022-11-30T11:30:51;8.60;;;7.70;;
16543;SDS011;8384;47.996;7.786;2022-11-30T11:35:49;7.23;;;6.50;;
16543;SDS011;8384;47.996;7.786;2022-11-30T11:38:23;7.40;;;5.97;;
16543;SDS011;8384;47.996;7.786;2022-11-30T11:41:05;7.53;;;6.50;;
16543;SDS011;8384;47.996;7.786;2022-11-30T11:43:39;6.53;;;5.50;;
16543;SDS011;8384;47.996;7.786;2022-11-30T11:46:22;5.27;;;4.77;;
16543;SDS011;8384;47.996;7.786;2022-11-30T11:49:00;5.67;;;5.17;;
16543;SDS011;8384;47.996;7.786;2022-11-30T11:51:29;5.00;;;4.60;;
16543;SDS011;8384;47.996;7.786;2022-11-30T11:54:12;6.33;;;4.63;;
16543;SDS011;8384;47.996;7.786;2022-11-30T11:56:49;5.07;;;4.57;;
16543;SDS011;8384;47.996;7.786;2022-11-30T12:02:20;4.70;;;4.30;;
16543;SDS011;8384;47.996;7.786;2022-11-30T12:04:54;5.00;;;4.60;;
16543;SDS011;8384;47.996;7.786;2022-11-30T12:07:37;3.77;;;3.47;;
16543;SDS011;8384;47.996;7.786;2022-11-30T12:10:24;4.20;;;3.80;;
16543;SDS011;8384;47.996;7.786;2022-11-30T12:12:55;4.33;;;3.87;;
16543;SDS011;8384;47.996;7.786;2022-11-30T12:15:24;4.23;;;3.90;;
16543;SDS011;8384;47.996;7.786;2022-11-30T12:24:02;3.97;;;3.67;;
16543;SDS011;8384;47.996;7.786;2022-11-30T12:34:48;4.53;;;4.13;;
16543;SDS011;8384;47.996;7.786;2022-11-30T12:42:42;4.63;;;4.27;;
16543;SDS011;8384;47.996;7.786;2022-11-30T12:45:39;4.30;;;3.90;;
16543;SDS011;8384;47.996;7.786;2022-11-30T12:49:00;5.70;;;5.20;;
16543;SDS011;8384;47.996;7.786;2022-11-30T12:51:22;4.50;;;4.10;;
16543;SDS011;8384;47.996;7.786;2022-11-30T12:54:10;4.67;;;3.90;;
16543;SDS011;8384;47.996;7.786;2022-11-30T12:56:51;5.20;;;4.10;;
16543;SDS011;8384;47.996;7.786;2022-11-30T12:59:44;4.43;;;3.90;;
16543;SDS011;8384;47.996;7.786;2022-11-30T13:02:43;4.07;;;3.67;;
16543;SDS011;8384;47.996;7.786;2022-11-30T13:05:23;3.93;;;3.53;;
16543;SDS011;8384;47.996;7.786;2022-11-30T13:08:13;3.60;;;3.30;;
16543;SDS011;8384;47.996;7.786;2022-11-30T13:10:46;3.77;;;3.37;;
16543;SDS011;8384;47.996;7.786;2022-11-30T13:13:23;5.17;;;3.57;;
16543;SDS011;8384;47.996;7.786;2022-11-30T13:15:52;3.80;;;3.47;;
16543;SDS011;8384;47.996;7.786;2022-11-30T13:18:20;4.17;;;3.37;;
16543;SDS011;8384;47.996;7.786;2022-11-30T13:23:31;4.70;;;3.40;;
16543;SDS011;8384;47.996;7.786;2022-11-30T13:26:26;3.87;;;3.50;;
16543;SDS011;8384;47.996;7.786;2022-11-30T13:29:06;4.73;;;3.47;;
16543;SDS011;8384;47.996;7.786;2022-11-30T13:31:50;3.53;;;3.23;;
16543;SDS011;8384;47.996;7.786;2022-11-30T13:34:27;3.90;;;2.93;;
16543;SDS011;8384;47.996;7.786;2022-11-30T13:37:07;4.03;;;3.33;;
16543;SDS011;8384;47.996;7.786;2022-11-30T13:44:59;4.07;;;3.00;;
16543;SDS011;8384;47.996;7.786;2022-11-30T13:47:47;4.63;;;3.40;;
16543;SDS011;8384;47.996;7.786;2022-11-30T13:53:08;2.97;;;2.33;;
16543;SDS011;8384;47.996;7.786;2022-11-30T13:58:17;3.53;;;3.23;;
16543;SDS011;8384;47.996;7.786;2022-11-30T14:00:45;4.03;;;3.63;;
16543;SDS011;8384;47.996;7.786;2022-11-30T14:03:25;5.40;;;3.80;;
16543;SDS011;8384;47.996;7.786;2022-11-30T14:10:45;5.37;;;4.77;;
16543;SDS011;8384;47.996;7.786;2022-11-30T14:13:33;4.60;;;4.10;;
16543;SDS011;8384;47.996;7.786;2022-11-30T14:15:59;5.27;;;4.20;;
16543;SDS011;8384;47.996;7.786;2022-11-30T14:21:14;5.20;;;4.40;;
16543;SDS011;8384;47.996;7.786;2022-11-30T14:23:50;5.33;;;4.43;;
16543;SDS011;8384;47.996;7.786;2022-11-30T14:26:44;7.07;;;4.97;;
16543;SDS011;8384;47.996;7.786;2022-11-30T14:32:05;6.00;;;4.63;;
16543;SDS011;8384;47.996;7.786;2022-11-30T14:34:39;5.87;;;5.07;;
16543;SDS011;8384;47.996;7.786;2022-11-30T14:37:12;6.00;;;5.40;;
16543;SDS011;8384;47.996;7.786;2022-11-30T14:39:44;8.33;;;6.63;;
16543;SDS011;8384;47.996;7.786;2022-11-30T14:42:17;9.67;;;8.23;;
16543;SDS011;8384;47.996;7.786;2022-11-30T14:44:51;10.07;;;8.93;;
16543;SDS011;8384;47.996;7.786;2022-11-30T14:49:56;9.20;;;8.30;;
16543;SDS011;8384;47.996;7.786;2022-11-30T14:55:30;11.37;;;10.10;;
16543;SDS011;8384;47.996;7.786;2022-11-30T14:58:07;13.33;;;10.77;;
16543;SDS011;8384;47.996;7.786;2022-11-30T15:00:37;11.77;;;10.57;;
16543;SDS011;8384;47.996;7.786;2022-11-30T15:03:12;11.30;;;10.17;;
16543;SDS011;8384;47.996;7.786;2022-11-30T15:05:42;11.63;;;10.43;;
16543;SDS011;8384;47.996;7.786;2022-11-30T15:08:09;11.10;;;10.00;;
16543;SDS011;8384;47.996;7.786;2022-11-30T15:10:38;10.87;;;9.57;;
16543;SDS011;8384;47.996;7.786;2022-11-30T15:13:05;11.53;;;9.90;;
16543;SDS011;8384;47.996;7.786;2022-11-30T15:15:30;11.03;;;9.87;;
16543;SDS011;8384;47.996;7.786;2022-11-30T15:18:09;12.47;;;10.00;;
16543;SDS011;8384;47.996;7.786;2022-11-30T15:20:50;14.10;;;10.20;;
16543;SDS011;8384;47.996;7.786;2022-11-30T15:23:19;11.70;;;10.10;;
16543;SDS011;8384;47.996;7.786;2022-11-30T15:25:46;12.37;;;10.77;;
16543;SDS011;8384;47.996;7.786;2022-11-30T15:28:16;14.37;;;10.87;;
16543;SDS011;8384;47.996;7.786;2022-11-30T15:30:47;11.47;;;10.30;;
16543;SDS011;8384;47.996;7.786;2022-11-30T15:33:19;14.20;;;12.57;;
16543;SDS011;8384;47.996;7.786;2022-11-30T15:35:47;11.80;;;10.60;;
16543;SDS011;8384;47.996;7.786;2022-11-30T15:38:24;12.73;;;11.43;;
16543;SDS011;8384;47.996;7.786;2022-11-30T15:40:51;15.17;;;12.20;;
16543;SDS011;8384;47.996;7.786;2022-11-30T15:43:26;15.03;;;12.70;;
16543;SDS011;8384;47.996;7.786;2022-11-30T15:45:56;14.63;;;13.00;;
16543;SDS011;8384;47.996;7.786;2022-11-30T15:48:32;15.10;;;13.60;;
16543;SDS011;8384;47.996;7.786;2022-11-30T15:51:01;13.77;;;12.37;;
16543;SDS011;8384;47.996;7.786;2022-11-30T15:53:28;12.90;;;11.50;;
16543;SDS011;8384;47.996;7.786;2022-11-30T15:56:23;12.07;;;9.57;;
16543;SDS011;8384;47.996;7.786;2022-11-30T16:01:29;10.90;;;8.00;;
16543;SDS011;8384;47.996;7.786;2022-11-30T16:03:59;9.00;;;8.10;;
16543;SDS011;8384;47.996;7.786;2022-11-30T16:06:34;9.57;;;7.73;;
16543;SDS011;8384;47.996;7.786;2022-11-30T16:09:04;11.00;;;7.60;;
16543;SDS011;8384;47.996;7.786;2022-11-30T16:11:41;9.60;;;8.10;;
16543;SDS011;8384;47.996;7.786;2022-11-30T16:14:07;9.40;;;8.43;;
16543;SDS011;8384;47.996;7.786;2022-11-30T16:16:38;12.73;;;9.10;;
16543;SDS011;8384;47.996;7.786;2022-11-30T16:19:04;11.40;;;8.83;;
16543;SDS011;8384;47.996;7.786;2022-11-30T16:21:29;8.40;;;7.43;;
16543;SDS011;8384;47.996;7.786;2022-11-30T16:23:54;7.57;;;6.70;;
16543;SDS011;8384;47.996;7.786;2022-11-30T16:26:19;5.80;;;4.23;;
16543;SDS011;8384;47.996;7.786;2022-11-30T16:28:45;4.67;;;4.17;;